createdAt,value
2019-06-15T00:01:36.188Z,0.50
2019-06-15T00:04:04.364Z,0.40
2019-06-15T00:06:32.948Z,1.37
2019-06-15T00:09:01.420Z,0.47
2019-06-15T00:11:29.797Z,0.80
2019-06-15T00:13:58.096Z,1.03
2019-06-15T00:16:26.109Z,2.77
2019-06-15T00:18:55.001Z,0.30
2019-06-15T00:21:23.563Z,0.57
2019-06-15T00:23:52.014Z,0.40
2019-06-15T00:26:20.310Z,1.47
2019-06-15T00:28:48.923Z,0.37
2019-06-15T00:31:17.371Z,2.03
2019-06-15T00:33:45.724Z,3.60
2019-06-15T00:36:14.369Z,1.47
2019-06-15T00:38:44.808Z,0.97
2019-06-15T00:41:13.441Z,2.63
2019-06-15T00:43:42.368Z,3.23
2019-06-15T00:46:10.836Z,4.87
2019-06-15T00:48:39.070Z,3.77
2019-06-15T00:51:07.385Z,2.07
2019-06-15T00:53:35.559Z,4.63
2019-06-15T00:56:04.872Z,7.97
2019-06-15T00:58:33.417Z,5.13
2019-06-15T01:01:01.599Z,5.80
2019-06-15T01:03:30.087Z,4.17
2019-06-15T01:05:58.801Z,3.90
2019-06-15T01:08:27.695Z,5.47
2019-06-15T01:10:55.989Z,9.63
2019-06-15T01:13:24.141Z,8.00
2019-06-15T01:15:52.244Z,7.07
2019-06-15T01:18:20.725Z,6.80
2019-06-15T01:20:49.175Z,5.80
2019-06-15T01:23:17.363Z,7.73
2019-06-15T01:25:45.427Z,7.50
2019-06-15T01:28:15.027Z,6.07
2019-06-15T01:30:43.461Z,7.77
2019-06-15T01:33:11.347Z,9.53
2019-06-15T01:35:39.916Z,5.20
2019-06-15T01:38:08.579Z,3.93
2019-06-15T01:40:36.900Z,5.10
2019-06-15T01:43:05.399Z,4.83
2019-06-15T01:45:33.735Z,7.40
2019-06-15T01:48:01.943Z,8.97
2019-06-15T01:50:32.006Z,5.70
2019-06-15T01:53:00.377Z,6.13
2019-06-15T01:55:29.440Z,6.47
2019-06-15T01:57:57.362Z,7.03
2019-06-15T02:00:30.310Z,5.50
2019-06-15T02:02:58.606Z,3.63
2019-06-15T02:05:26.807Z,6.57
2019-06-15T02:07:55.081Z,7.40
2019-06-15T02:10:28.528Z,4.00
2019-06-15T02:12:56.822Z,7.57
2019-06-15T02:15:25.206Z,3.93
2019-06-15T02:17:53.794Z,6.70
2019-06-15T02:20:21.967Z,4.27
2019-06-15T02:22:50.396Z,5.23
2019-06-15T02:25:35.367Z,6.43
2019-06-15T02:27:54.628Z,6.87
2019-06-15T02:30:26.620Z,5.37
2019-06-15T02:32:55.632Z,7.97
2019-06-15T02:35:23.984Z,6.13
2019-06-15T02:37:52.895Z,4.43
2019-06-15T02:40:21.958Z,6.67
2019-06-15T02:42:50.062Z,13.22
2019-06-15T02:45:18.290Z,10.63
2019-06-15T02:47:46.458Z,9.73
2019-06-15T02:50:15.441Z,6.63
2019-06-15T02:52:44.244Z,6.87
2019-06-15T02:55:13.486Z,8.97
2019-06-15T02:57:41.427Z,10.57
2019-06-15T03:00:11.534Z,8.67
2019-06-15T03:02:39.536Z,11.20
2019-06-15T03:05:08.057Z,13.90
2019-06-15T03:07:36.389Z,8.97
2019-06-15T03:10:04.771Z,9.63
2019-06-15T03:12:33.261Z,9.37
2019-06-15T03:15:02.001Z,14.47
2019-06-15T03:17:30.413Z,10.30
2019-06-15T03:19:58.762Z,10.27
2019-06-15T03:22:27.463Z,10.40
2019-06-15T03:24:55.779Z,8.43
2019-06-15T03:27:23.819Z,8.97
2019-06-15T03:29:51.866Z,12.97
2019-06-15T03:32:19.821Z,7.93
2019-06-15T03:34:48.173Z,7.80
2019-06-15T03:37:16.306Z,9.67
2019-06-15T03:39:44.583Z,7.80
2019-06-15T03:42:13.238Z,8.97
2019-06-15T03:44:41.554Z,8.20
2019-06-15T03:47:09.700Z,9.13
2019-06-15T03:49:38.020Z,10.37
2019-06-15T03:52:06.405Z,10.87
2019-06-15T03:54:34.341Z,12.57
2019-06-15T03:57:02.231Z,14.17
2019-06-15T03:59:30.147Z,13.50
2019-06-15T04:01:58.101Z,16.40
2019-06-15T04:04:26.077Z,15.87
2019-06-15T04:06:54.363Z,20.60
2019-06-15T04:09:22.604Z,18.83
2019-06-15T04:11:50.669Z,17.67
2019-06-15T04:14:18.946Z,26.27
2019-06-15T04:16:46.857Z,21.53
2019-06-15T04:19:16.040Z,22.60
2019-06-15T04:21:43.954Z,20.30
2019-06-15T04:24:12.113Z,22.00
2019-06-15T04:26:39.986Z,23.27
2019-06-15T04:29:08.643Z,24.30
2019-06-15T04:31:39.883Z,30.90
2019-06-15T04:34:06.817Z,29.40
2019-06-15T04:36:34.866Z,31.53
2019-06-15T04:39:05.141Z,33.70
2019-06-15T04:41:33.471Z,37.97
2019-06-15T04:44:01.518Z,37.43
2019-06-15T04:46:32.001Z,39.50
2019-06-15T04:48:59.349Z,38.80
2019-06-15T04:51:27.489Z,39.73
2019-06-15T04:53:55.547Z,40.17
2019-06-15T04:56:24.961Z,38.17
2019-06-15T04:58:53.972Z,39.97
2019-06-15T05:01:22.125Z,44.03
2019-06-15T05:03:50.897Z,39.03
2019-06-15T05:09:44.367Z,44.67
2019-06-15T05:12:12.578Z,46.37
2019-06-15T05:14:40.620Z,48.80
2019-06-15T05:17:09.119Z,45.83
2019-06-15T05:19:37.059Z,42.33
2019-06-15T05:22:05.595Z,49.17
2019-06-15T05:24:34.070Z,44.87
2019-06-15T05:27:06.356Z,47.53
2019-06-15T05:29:33.768Z,46.50
2019-06-15T05:32:02.390Z,45.80
2019-06-15T05:34:30.374Z,44.77
2019-06-15T05:36:58.684Z,42.83
2019-06-15T05:39:27.704Z,49.23
2019-06-15T05:42:00.859Z,48.83
2019-06-15T05:44:30.685Z,50.10
2019-06-15T05:46:59.024Z,46.83
2019-06-15T05:49:29.471Z,50.53
2019-06-15T05:51:59.334Z,42.00
2019-06-15T05:54:29.900Z,36.07
2019-06-15T05:56:58.923Z,36.10
2019-06-15T05:59:28.087Z,22.67
2019-06-15T06:01:59.530Z,17.53
2019-06-15T06:04:31.808Z,16.97
2019-06-15T06:07:04.227Z,14.93
2019-06-15T06:09:32.404Z,16.50
2019-06-15T06:12:00.581Z,11.88
2019-06-15T06:14:31.488Z,11.75
2019-06-15T06:16:59.656Z,10.00
2019-06-15T06:19:28.044Z,9.65
2019-06-15T06:21:58.350Z,7.53
2019-06-15T06:24:29.714Z,7.33
2019-06-15T06:26:58.204Z,4.53
2019-06-15T06:29:27.684Z,10.93
2019-06-15T06:31:57.597Z,4.50
2019-06-15T06:34:27.557Z,6.87
2019-06-15T06:37:03.762Z,6.27
2019-06-15T06:39:36.947Z,4.87
2019-06-15T06:42:06.445Z,7.83
2019-06-15T06:44:34.909Z,5.73
2019-06-15T06:47:04.644Z,6.33
2019-06-15T06:49:32.846Z,6.37
2019-06-15T06:52:01.285Z,5.50
2019-06-15T06:54:30.868Z,4.63
2019-06-15T06:57:01.881Z,6.93
2019-06-15T06:59:30.206Z,12.73
2019-06-15T07:01:59.225Z,6.67
2019-06-15T07:08:42.350Z,5.53
2019-06-15T07:11:10.418Z,4.13
2019-06-15T07:13:39.101Z,3.73
2019-06-15T07:16:07.518Z,4.90
2019-06-15T07:18:35.487Z,7.47
2019-06-15T07:21:04.083Z,4.40
2019-06-15T07:23:32.476Z,6.13
2019-06-15T07:26:00.486Z,6.07
2019-06-15T07:28:28.825Z,6.87
2019-06-15T07:30:56.916Z,5.73
2019-06-15T07:33:25.097Z,9.43
2019-06-15T07:35:53.034Z,11.17
2019-06-15T07:38:21.020Z,7.50
2019-06-15T07:40:50.076Z,7.27
2019-06-15T07:43:18.359Z,8.10
2019-06-15T07:45:46.868Z,9.50
2019-06-15T07:48:15.225Z,8.80
2019-06-15T07:50:43.514Z,10.97
2019-06-15T07:53:11.438Z,12.13
2019-06-15T07:55:39.302Z,11.17
2019-06-15T07:58:23.332Z,9.23
2019-06-15T08:00:38.246Z,11.37
2019-06-15T08:03:07.026Z,13.77
2019-06-15T08:05:34.965Z,10.37
2019-06-15T08:08:02.878Z,11.57
2019-06-15T08:10:30.795Z,11.50
2019-06-15T08:12:58.842Z,13.07
2019-06-15T08:15:26.940Z,12.07
2019-06-15T08:17:55.431Z,10.10
2019-06-15T08:20:28.309Z,13.93
2019-06-15T08:22:56.486Z,11.10
2019-06-15T08:25:24.788Z,11.23
2019-06-15T08:27:52.858Z,11.07
2019-06-15T08:30:28.096Z,11.37
2019-06-15T08:32:55.969Z,10.73
2019-06-15T08:35:24.322Z,10.80
2019-06-15T08:37:52.494Z,10.87
2019-06-15T08:40:22.541Z,9.83
2019-06-15T08:42:50.893Z,12.63
2019-06-15T08:45:19.133Z,10.20
2019-06-15T08:47:50.239Z,8.60
2019-06-15T08:50:19.139Z,9.70
2019-06-15T08:52:47.148Z,11.47
2019-06-15T08:55:15.215Z,13.50
2019-06-15T08:57:44.789Z,10.50
2019-06-15T09:00:12.864Z,10.70
2019-06-15T09:02:40.901Z,9.73
2019-06-15T09:05:09.666Z,9.50
2019-06-15T09:07:37.749Z,9.30
2019-06-15T09:10:06.889Z,8.20
2019-06-15T09:12:35.193Z,7.87
2019-06-15T09:15:04.286Z,8.23
2019-06-15T09:17:32.210Z,12.07
2019-06-15T09:20:00.405Z,10.37
2019-06-15T09:22:28.281Z,8.60
2019-06-15T09:24:57.902Z,8.33
2019-06-15T09:27:25.835Z,7.93
2019-06-15T09:29:53.781Z,10.67
2019-06-15T09:32:22.582Z,8.43
2019-06-15T09:34:50.630Z,7.87
2019-06-15T09:37:18.681Z,9.75
2019-06-15T09:39:47.376Z,7.62
2019-06-15T09:42:15.362Z,6.10
2019-06-15T09:44:43.748Z,4.70
2019-06-15T09:47:11.849Z,5.27
2019-06-15T09:49:39.696Z,3.83
2019-06-15T09:52:07.572Z,3.00
2019-06-15T09:54:35.554Z,2.40
2019-06-15T09:57:03.738Z,3.62
2019-06-15T09:59:31.675Z,2.12
2019-06-15T10:02:00.312Z,1.93
2019-06-15T10:04:28.481Z,3.33
2019-06-15T10:06:56.457Z,5.03
2019-06-15T10:09:24.494Z,4.57
2019-06-15T10:11:52.447Z,3.47
2019-06-15T10:14:20.591Z,3.85
2019-06-15T10:16:48.523Z,3.63
2019-06-15T10:19:16.787Z,4.15
2019-06-15T10:21:44.775Z,6.03
2019-06-15T10:24:13.058Z,4.00
2019-06-15T10:26:41.132Z,6.05
2019-06-15T10:29:09.347Z,4.78
2019-06-15T10:31:37.838Z,6.20
2019-06-15T10:34:06.075Z,7.30
2019-06-15T10:36:34.145Z,3.80
2019-06-15T10:39:03.261Z,6.20
2019-06-15T10:41:31.640Z,3.65
2019-06-15T10:43:59.889Z,3.65
2019-06-15T10:46:27.861Z,3.42
2019-06-15T10:48:56.131Z,3.08
2019-06-15T10:51:24.778Z,3.95
2019-06-15T10:53:53.095Z,3.50
2019-06-15T10:56:21.306Z,3.75
2019-06-15T10:58:49.828Z,3.30
2019-06-15T11:01:18.342Z,3.30
2019-06-15T11:03:46.854Z,2.55
2019-06-15T11:06:16.014Z,2.98
2019-06-15T11:08:44.306Z,2.58
2019-06-15T11:11:21.652Z,3.77
2019-06-15T11:13:49.359Z,2.70
2019-06-15T11:16:18.484Z,3.70
2019-06-15T11:18:48.032Z,2.30
2019-06-15T11:21:16.650Z,4.90
2019-06-15T11:23:44.992Z,1.25
2019-06-15T11:26:13.512Z,1.65
2019-06-15T11:28:41.894Z,0.80
2019-06-15T11:31:10.344Z,2.30
2019-06-15T11:33:38.716Z,2.75
2019-06-15T11:36:07.058Z,5.05
2019-06-15T11:38:35.446Z,2.60
2019-06-15T11:41:04.357Z,2.30
2019-06-15T11:43:33.159Z,1.25
2019-06-15T11:46:01.448Z,1.35
2019-06-15T11:48:29.930Z,2.25
2019-06-15T11:50:57.914Z,1.20
2019-06-15T11:53:26.538Z,3.65
2019-06-15T11:55:55.157Z,1.37
2019-06-15T11:58:23.771Z,3.15
2019-06-15T12:00:52.000Z,3.25
2019-06-15T12:03:20.238Z,2.02
2019-06-15T12:05:48.882Z,2.42
2019-06-15T12:08:17.037Z,2.92
2019-06-15T12:10:45.499Z,1.67
2019-06-15T12:13:13.515Z,2.72
2019-06-15T12:15:42.274Z,1.87
2019-06-15T12:18:10.551Z,1.07
2019-06-15T12:20:39.174Z,1.40
2019-06-15T12:23:07.591Z,1.07
2019-06-15T12:25:36.038Z,1.60
2019-06-15T12:28:04.273Z,2.77
2019-06-15T12:30:48.858Z,2.65
2019-06-15T12:33:12.128Z,1.25
2019-06-15T12:35:40.916Z,4.12
2019-06-15T12:38:09.403Z,2.35
2019-06-15T12:40:38.195Z,1.67
2019-06-15T12:43:06.631Z,2.87
2019-06-15T12:45:34.702Z,2.40
2019-06-15T12:48:02.795Z,1.30
2019-06-15T12:50:30.699Z,2.10
2019-06-15T12:52:59.266Z,2.80
2019-06-15T12:55:27.111Z,2.77
2019-06-15T12:57:55.417Z,1.30
2019-06-15T13:00:29.313Z,3.50
2019-06-15T13:02:59.340Z,1.57
2019-06-15T13:05:27.464Z,2.00
2019-06-15T13:07:55.634Z,2.98
2019-06-15T13:10:24.345Z,4.78
2019-06-15T13:12:52.861Z,1.62
2019-06-15T13:15:22.640Z,1.55
2019-06-15T13:17:51.145Z,3.15
2019-06-15T13:20:21.044Z,2.98
2019-06-15T13:22:54.316Z,3.08
2019-06-15T13:25:23.491Z,2.72
2019-06-15T13:27:53.125Z,1.90
2019-06-15T13:30:22.512Z,2.90
2019-06-15T13:32:51.337Z,3.77
2019-06-15T13:35:20.471Z,2.55
2019-06-15T13:37:48.948Z,6.47
2019-06-15T13:40:17.313Z,10.82
2019-06-15T13:42:47.775Z,15.50
2019-06-15T13:45:17.619Z,8.95
2019-06-15T13:50:31.250Z,7.47
2019-06-15T13:52:58.902Z,4.37
2019-06-15T13:55:26.449Z,3.02
2019-06-15T13:57:54.067Z,3.27
2019-06-15T14:00:22.242Z,2.58
2019-06-15T14:05:32.867Z,1.60
2019-06-15T14:08:00.687Z,2.85
2019-06-15T14:10:28.334Z,2.75
2019-06-15T14:12:56.297Z,5.05
2019-06-15T14:15:24.164Z,0.85
2019-06-15T14:17:51.938Z,2.15
2019-06-15T14:20:20.488Z,0.82
2019-06-15T14:22:48.115Z,3.90
2019-06-15T14:25:16.198Z,2.62
2019-06-15T14:27:44.166Z,1.90
2019-06-15T14:30:11.916Z,2.83
2019-06-15T14:32:39.926Z,2.00
2019-06-15T14:35:08.139Z,3.22
2019-06-15T14:37:36.092Z,2.92
2019-06-15T14:40:04.899Z,4.65
2019-06-15T14:42:32.549Z,4.05
2019-06-15T14:45:00.253Z,1.83
2019-06-15T14:47:28.818Z,4.35
2019-06-15T14:49:56.651Z,3.03
2019-06-15T14:52:24.327Z,2.83
2019-06-15T14:57:41.171Z,3.70
2019-06-15T15:00:16.808Z,2.47
2019-06-15T15:02:46.872Z,2.47
2019-06-15T15:05:17.649Z,2.97
2019-06-15T15:07:46.955Z,1.73
2019-06-15T15:10:16.352Z,2.63
2019-06-15T15:12:46.098Z,0.90
2019-06-15T15:15:13.830Z,2.00
2019-06-15T15:17:42.618Z,3.10
2019-06-15T15:20:10.712Z,0.47
2019-06-15T15:22:38.975Z,0.75
2019-06-15T15:25:07.916Z,0.50
2019-06-15T15:27:37.401Z,0.68
2019-06-15T15:30:06.261Z,0.72
2019-06-15T15:32:37.100Z,2.98
2019-06-15T15:35:06.575Z,1.17
2019-06-15T15:37:36.936Z,1.65
2019-06-15T15:40:11.524Z,1.20
2019-06-15T15:42:39.546Z,0.30
2019-06-15T15:45:08.782Z,1.35
2019-06-15T15:47:37.577Z,1.40
2019-06-15T15:50:06.397Z,0.25
2019-06-15T15:52:37.171Z,1.75
2019-06-15T15:55:06.505Z,0.55
2019-06-15T15:57:36.338Z,0.50
2019-06-15T16:00:07.340Z,1.07
2019-06-15T16:02:52.066Z,0.20
2019-06-15T16:05:10.337Z,2.27
2019-06-15T16:07:42.447Z,0.62
2019-06-15T16:10:10.294Z,0.55
2019-06-15T16:12:38.037Z,0.30
2019-06-15T16:15:07.298Z,0.45
2019-06-15T16:17:37.288Z,0.35
2019-06-15T16:20:06.764Z,1.47
2019-06-15T16:22:36.856Z,1.75
2019-06-15T16:25:03.868Z,0.90
2019-06-15T16:27:31.458Z,2.47
2019-06-15T16:29:59.088Z,0.25
2019-06-15T16:32:26.674Z,0.57
2019-06-15T16:34:54.307Z,0.20
2019-06-15T16:37:21.877Z,1.37
2019-06-15T16:39:49.585Z,1.20
2019-06-15T16:42:17.489Z,0.53
2019-06-15T16:44:46.902Z,1.75
2019-06-15T16:47:16.595Z,2.92
2019-06-15T16:49:46.376Z,1.57
2019-06-15T16:52:16.287Z,0.47
2019-06-15T16:54:46.814Z,0.37
2019-06-15T16:57:15.959Z,1.32
2019-06-15T16:59:42.925Z,1.95
2019-06-15T17:02:10.549Z,0.53
2019-06-15T17:04:38.132Z,1.65
2019-06-15T17:07:07.142Z,0.45
2019-06-15T17:09:36.265Z,1.60
2019-06-15T17:12:12.890Z,2.50
2019-06-15T17:14:41.335Z,2.50
2019-06-15T17:17:09.928Z,1.35
2019-06-15T17:19:38.108Z,1.95
2019-06-15T17:22:20.430Z,1.27
2019-06-15T17:24:45.889Z,1.60
2019-06-15T17:27:37.519Z,0.68
2019-06-15T17:30:17.056Z,0.60
2019-06-15T17:32:48.545Z,1.60
2019-06-15T17:35:20.627Z,3.00
2019-06-15T17:37:56.395Z,2.58
2019-06-15T17:51:07.143Z,2.17
2019-06-15T17:54:24.024Z,2.83
2019-06-15T17:57:15.870Z,2.42
2019-06-15T18:00:12.626Z,2.15
2019-06-15T18:03:02.078Z,4.00
2019-06-15T18:06:09.634Z,4.50
2019-06-15T18:08:58.474Z,2.05
2019-06-15T18:12:02.471Z,0.40
2019-06-15T18:14:33.032Z,2.75
2019-06-15T18:19:42.059Z,3.37
2019-06-15T18:22:09.940Z,3.20
2019-06-15T18:24:37.587Z,2.13
2019-06-15T18:27:07.095Z,2.72
2019-06-15T18:29:36.699Z,3.02
2019-06-15T18:32:07.879Z,2.77
2019-06-15T18:34:36.842Z,3.03
2019-06-15T18:37:04.687Z,1.47
2019-06-15T18:39:32.983Z,2.83
2019-06-15T18:42:00.759Z,4.10
2019-06-15T18:44:28.558Z,1.40
2019-06-15T18:46:56.540Z,2.10
2019-06-15T18:49:26.633Z,5.35
2019-06-15T18:51:56.573Z,3.97
2019-06-15T18:54:23.535Z,3.90
2019-06-15T18:56:51.260Z,2.75
2019-06-15T18:59:19.357Z,1.70
2019-06-15T19:01:47.324Z,4.45
2019-06-15T19:04:24.591Z,1.05
2019-06-15T19:06:46.744Z,1.42
2019-06-15T19:09:16.274Z,2.02
2019-06-15T19:11:44.103Z,3.87
2019-06-15T19:14:11.875Z,1.47
2019-06-15T19:16:39.907Z,2.20
2019-06-15T19:19:09.240Z,3.15
2019-06-15T19:21:37.155Z,7.03
2019-06-15T19:24:07.086Z,4.03
2019-06-15T19:26:37.455Z,3.77
2019-06-15T19:29:06.371Z,1.42
2019-06-15T19:31:33.618Z,3.02
2019-06-15T19:34:01.837Z,4.67
2019-06-15T19:36:29.500Z,3.97
2019-06-15T19:38:57.315Z,2.62
2019-06-15T19:41:26.651Z,4.92
2019-06-15T19:43:56.954Z,5.08
2019-06-15T19:46:26.067Z,2.60
2019-06-15T19:48:55.940Z,3.87
2019-06-15T19:51:23.033Z,3.10
2019-06-15T19:53:50.628Z,3.98
2019-06-15T19:56:18.205Z,4.73
2019-06-15T19:58:46.223Z,3.80
2019-06-15T20:01:13.816Z,6.63
2019-06-15T20:03:41.468Z,5.97
2019-06-15T20:06:09.035Z,2.50
2019-06-15T20:08:36.835Z,6.53
2019-06-15T20:11:06.974Z,4.80
2019-06-15T20:13:36.863Z,5.08
2019-06-15T20:16:05.272Z,3.50
2019-06-15T20:18:32.981Z,2.67
2019-06-15T20:21:00.602Z,2.62
2019-06-15T20:23:28.861Z,4.50
2019-06-15T20:25:58.514Z,4.03
2019-06-15T20:28:27.286Z,5.13
2019-06-15T20:30:57.098Z,7.20
2019-06-15T20:33:26.381Z,5.53
2019-06-15T20:35:54.270Z,4.00
2019-06-15T20:38:21.830Z,5.80
2019-06-15T20:40:49.423Z,4.87
2019-06-15T20:43:18.954Z,5.45
2019-06-15T20:45:47.131Z,6.12
2019-06-15T20:48:14.720Z,7.20
2019-06-15T20:50:42.571Z,5.23
2019-06-15T20:53:10.483Z,5.67
2019-06-15T20:55:38.058Z,7.33
2019-06-15T21:01:03.404Z,7.97
2019-06-15T21:03:31.039Z,8.35
2019-06-15T21:05:58.669Z,8.20
2019-06-15T21:08:26.749Z,9.67
2019-06-15T21:10:56.432Z,10.40
2019-06-15T21:13:26.226Z,9.13
2019-06-15T21:15:53.536Z,10.57
2019-06-15T21:18:21.518Z,10.28
2019-06-15T21:20:49.164Z,12.60
2019-06-15T21:23:16.896Z,11.60
2019-06-15T21:25:46.777Z,10.50
2019-06-15T21:28:16.683Z,10.90
2019-06-15T21:30:43.670Z,12.53
2019-06-15T21:33:11.389Z,14.90
2019-06-15T21:35:49.028Z,18.80
2019-06-15T21:38:09.155Z,23.57
2019-06-15T21:40:37.029Z,26.00
2019-06-15T21:43:06.802Z,28.00
2019-06-15T21:45:36.268Z,33.47
2019-06-15T21:48:06.538Z,43.30
2019-06-15T21:50:33.416Z,45.90
2019-06-15T21:53:01.383Z,41.37
2019-06-15T21:55:29.050Z,47.77
2019-06-15T21:57:56.706Z,52.63
2019-06-15T22:00:39.781Z,54.37
2019-06-15T22:03:07.476Z,52.47
2019-06-15T22:05:36.842Z,58.10
2019-06-15T22:08:21.633Z,61.93
2019-06-15T22:10:58.000Z,68.97
2019-06-15T22:13:33.464Z,72.93
2019-06-15T22:16:09.114Z,81.57
2019-06-15T22:18:47.200Z,86.57
2019-06-15T22:21:21.113Z,81.40
2019-06-15T22:23:55.937Z,92.03
2019-06-15T22:26:31.363Z,96.57
2019-06-15T22:29:16.587Z,87.37
2019-06-15T22:32:00.704Z,87.97
2019-06-15T22:34:36.445Z,91.37
2019-06-15T22:37:13.082Z,101.00
2019-06-15T22:39:58.104Z,109.67
2019-06-15T22:42:32.229Z,111.63
2019-06-15T22:45:10.906Z,114.20
2019-06-15T22:47:46.871Z,119.83
2019-06-15T22:50:21.039Z,127.30
2019-06-15T22:52:56.480Z,123.87
2019-06-15T22:55:33.026Z,140.80
2019-06-15T22:58:07.122Z,143.53
2019-06-15T23:00:41.378Z,139.33
2019-06-15T23:03:28.736Z,136.20
2019-06-15T23:06:03.157Z,144.77
2019-06-15T23:08:38.742Z,154.63
2019-06-15T23:11:17.435Z,152.00
2019-06-15T23:13:57.185Z,157.87
2019-06-15T23:16:36.655Z,142.90
2019-06-15T23:19:10.824Z,140.13
2019-06-15T23:21:46.314Z,115.63
2019-06-15T23:24:21.500Z,109.07
2019-06-15T23:26:57.078Z,98.90
2019-06-15T23:29:40.832Z,75.03
2019-06-15T23:32:20.779Z,67.97
2019-06-15T23:34:56.517Z,61.13
2019-06-15T23:37:30.820Z,63.47
2019-06-15T23:40:26.965Z,54.93
2019-06-15T23:43:02.425Z,51.10
2019-06-15T23:45:40.020Z,45.00
2019-06-15T23:48:16.100Z,44.50
2019-06-15T23:50:52.333Z,38.90
2019-06-15T23:53:27.874Z,38.40
2019-06-15T23:56:07.274Z,35.60
2019-06-15T23:58:42.765Z,38.87
